Time;durP1;ratioP1;P1;durP2;ratioP2;P2;SDS_P1;SDS_P2;PMS_P1;PMS_P2;Temp;Humidity;BMP_temperature;BMP_pressure;BME280_temperature;BME280_humidity;BME280_pressure;Samples;Min_cycle;Max_cycle;Signal;HPM_P1;HPM_P2
2024/02/05 00:02:11;;;;;;;0.70;0.70;;;;;;;;;;5097836;28;20685;-77
2024/02/05 00:04:39;;;;;;;0.60;0.60;;;;;;;;;;5101645;28;20290;-78
2024/02/05 00:07:07;;;;;;;0.32;0.32;;;;;;;;;;5102528;28;20249;-77
2024/02/05 00:09:34;;;;;;;0.60;0.60;;;;;;;;;;5102323;28;20291;-78
2024/02/05 00:12:02;;;;;;;0.60;0.60;;;;;;;;;;5102545;28;20221;-79
2024/02/05 00:14:29;;;;;;;0.40;0.40;;;;;;;;;;5101777;28;20234;-78
2024/02/05 00:16:57;;;;;;;0.85;0.73;;;;;;;;;;5101628;28;20227;-78
2024/02/05 00:19:24;;;;;;;0.60;0.60;;;;;;;;;;5101146;28;20204;-78
2024/02/05 00:21:53;;;;;;;0.90;0.60;;;;;;;;;;5101664;28;20204;-77
2024/02/05 00:24:20;;;;;;;0.60;0.60;;;;;;;;;;5103135;28;20271;-78
2024/02/05 00:26:48;;;;;;;0.57;0.57;;;;;;;;;;5101699;28;20252;-78
2024/02/05 00:29:15;;;;;;;0.50;0.50;;;;;;;;;;5101856;28;20263;-77
2024/02/05 00:31:43;;;;;;;0.60;0.60;;;;;;;;;;5103070;28;20224;-76
2024/02/05 00:34:11;;;;;;;0.50;0.50;;;;;;;;;;5103136;28;20200;-78
2024/02/05 00:36:38;;;;;;;1.27;0.75;;;;;;;;;;5102188;28;20224;-75
2024/02/05 00:39:10;;;;;;;0.43;0.43;;;;;;;;;;5101917;28;20204;-76
2024/02/05 00:41:37;;;;;;;0.70;0.70;;;;;;;;;;5101514;28;20271;-76
2024/02/05 00:44:05;;;;;;;0.70;0.70;;;;;;;;;;5089710;28;20268;-77
2024/02/05 00:46:32;;;;;;;0.75;0.68;;;;;;;;;;5081303;28;20216;-78
2024/02/05 00:49:00;;;;;;;1.23;1.17;;;;;;;;;;5081428;28;20686;-78
2024/02/05 00:51:28;;;;;;;1.08;0.88;;;;;;;;;;5081679;28;20234;-77
2024/02/05 00:53:57;;;;;;;1.15;1.10;;;;;;;;;;5082044;28;20219;-77
2024/02/05 00:56:26;;;;;;;0.80;0.80;;;;;;;;;;5081575;28;20239;-77
2024/02/05 00:58:54;;;;;;;1.02;0.80;;;;;;;;;;5081946;28;20619;-78
2024/02/05 01:01:21;;;;;;;1.10;0.70;;;;;;;;;;5081965;28;20644;-77
2024/02/05 01:03:49;;;;;;;1.77;1.35;;;;;;;;;;5081837;28;20212;-77
2024/02/05 01:06:16;;;;;;;1.00;1.00;;;;;;;;;;5081643;28;20292;-78
2024/02/05 01:08:43;;;;;;;0.95;0.95;;;;;;;;;;5082374;28;20284;-78
2024/02/05 01:11:11;;;;;;;1.00;1.00;;;;;;;;;;5081670;28;20251;-77
2024/02/05 01:13:40;;;;;;;0.80;0.80;;;;;;;;;;5081767;28;20576;-76
2024/02/05 01:16:08;;;;;;;0.90;0.90;;;;;;;;;;5081138;28;20272;-77
2024/02/05 01:18:36;;;;;;;1.02;1.02;;;;;;;;;;5081413;28;20304;-78
2024/02/05 01:21:04;;;;;;;1.30;1.20;;;;;;;;;;5082162;28;20209;-79
2024/02/05 01:23:32;;;;;;;1.10;1.00;;;;;;;;;;5081979;28;20197;-78
2024/02/05 01:25:59;;;;;;;1.30;1.20;;;;;;;;;;5081014;28;20196;-77
2024/02/05 01:28:27;;;;;;;0.85;0.85;;;;;;;;;;5080641;28;20264;-77
2024/02/05 01:30:55;;;;;;;1.50;1.40;;;;;;;;;;5080394;28;20264;-75
2024/02/05 01:33:23;;;;;;;1.45;1.27;;;;;;;;;;5079198;28;20227;-75
2024/02/05 01:35:50;;;;;;;0.70;0.70;;;;;;;;;;5078145;28;20685;-76
2024/02/05 01:38:18;;;;;;;1.02;1.02;;;;;;;;;;5078904;28;20278;-77
2024/02/05 01:40:45;;;;;;;1.42;1.10;;;;;;;;;;5078555;28;20713;-77
2024/02/05 01:43:13;;;;;;;1.70;1.60;;;;;;;;;;5079239;28;20205;-78
2024/02/05 01:45:40;;;;;;;1.05;1.02;;;;;;;;;;5079044;28;20670;-78
2024/02/05 01:48:10;;;;;;;2.40;1.67;;;;;;;;;;5077905;28;20225;-79
2024/02/05 01:50:39;;;;;;;1.10;1.10;;;;;;;;;;5077673;28;20263;-82
2024/02/05 01:53:07;;;;;;;1.20;1.10;;;;;;;;;;5099334;28;20220;-79
2024/02/05 01:55:34;;;;;;;0.90;0.90;;;;;;;;;;5098575;28;20200;-78
2024/02/05 01:58:02;;;;;;;1.00;1.00;;;;;;;;;;5099290;28;20230;-78
2024/02/05 02:00:29;;;;;;;1.83;1.73;;;;;;;;;;5098883;28;20242;-78
2024/02/05 02:02:56;;;;;;;2.63;2.05;;;;;;;;;;5098970;28;20192;-78
2024/02/05 02:05:25;;;;;;;1.20;1.20;;;;;;;;;;5098930;28;20204;-78
2024/02/05 02:07:53;;;;;;;1.63;1.52;;;;;;;;;;5099208;28;20216;-78
2024/02/05 02:10:20;;;;;;;1.77;1.67;;;;;;;;;;5098939;28;20200;-78
2024/02/05 02:12:48;;;;;;;1.48;1.30;;;;;;;;;;5098886;28;20246;-78
2024/02/05 02:15:15;;;;;;;2.22;1.63;;;;;;;;;;5098476;28;20563;-78
2024/02/05 02:17:46;;;;;;;1.40;1.30;;;;;;;;;;5098506;28;20251;-78
2024/02/05 02:20:14;;;;;;;2.53;1.40;;;;;;;;;;5098800;28;20181;-78
2024/02/05 02:22:53;;;;;;;1.27;1.17;;;;;;;;;;5097821;28;20287;-78
2024/02/05 02:25:23;;;;;;;1.40;1.30;;;;;;;;;;5098728;28;20181;-78
2024/02/05 02:27:51;;;;;;;2.42;1.30;;;;;;;;;;5098465;28;20251;-78
2024/02/05 02:30:20;;;;;;;1.83;1.70;;;;;;;;;;5097599;28;20621;-78
2024/02/05 02:33:06;;;;;;;1.73;1.10;;;;;;;;;;5097819;28;20226;-78
2024/02/05 02:35:39;;;;;;;1.38;1.27;;;;;;;;;;5098287;28;20180;-78
2024/02/05 02:38:12;;;;;;;1.55;1.30;;;;;;;;;;5098415;28;20287;-78
2024/02/05 02:40:41;;;;;;;1.75;1.65;;;;;;;;;;5098414;28;20279;-79
2024/02/05 02:43:09;;;;;;;0.75;0.75;;;;;;;;;;5098000;28;20291;-78
2024/02/05 02:45:37;;;;;;;1.30;1.30;;;;;;;;;;5097379;28;20296;-78
2024/02/05 02:48:05;;;;;;;1.85;1.48;;;;;;;;;;5096492;28;20242;-79
2024/02/05 02:50:33;;;;;;;1.10;1.10;;;;;;;;;;5098104;28;20204;-78
2024/02/05 02:53:01;;;;;;;1.27;1.15;;;;;;;;;;5097917;28;20223;-78
2024/02/05 02:55:28;;;;;;;3.13;1.40;;;;;;;;;;5097669;28;20235;-78
2024/02/05 02:57:57;;;;;;;1.17;1.08;;;;;;;;;;5097483;28;20308;-79
2024/02/05 03:00:24;;;;;;;1.17;1.17;;;;;;;;;;5096988;28;20714;-78
2024/02/05 03:02:52;;;;;;;1.52;1.42;;;;;;;;;;5096423;28;20658;-78
2024/02/05 03:05:19;;;;;;;1.38;1.27;;;;;;;;;;5096846;28;20210;-78
2024/02/05 03:07:47;;;;;;;0.82;0.82;;;;;;;;;;5095780;28;20591;-78
2024/02/05 03:10:14;;;;;;;2.05;1.30;;;;;;;;;;5096455;28;20292;-78
2024/02/05 03:12:42;;;;;;;2.50;1.17;;;;;;;;;;5096907;28;20228;-77
2024/02/05 03:15:12;;;;;;;1.80;1.70;;;;;;;;;;5096645;28;20229;-78
2024/02/05 03:17:39;;;;;;;2.78;1.65;;;;;;;;;;5097256;28;20259;-78
2024/02/05 03:20:08;;;;;;;4.80;1.70;;;;;;;;;;5097422;28;20654;-78
2024/02/05 03:22:36;;;;;;;1.38;1.27;;;;;;;;;;5097466;28;20282;-78
2024/02/05 03:25:03;;;;;;;1.80;1.30;;;;;;;;;;5097040;28;20264;-78
2024/02/05 03:27:31;;;;;;;3.63;2.40;;;;;;;;;;5096067;28;20242;-78
2024/02/05 03:29:58;;;;;;;4.72;2.40;;;;;;;;;;5096817;28;20199;-78
2024/02/05 03:32:27;;;;;;;4.88;2.65;;;;;;;;;;5097142;28;20207;-78
2024/02/05 03:34:55;;;;;;;3.47;2.80;;;;;;;;;;5096644;28;20200;-78
2024/02/05 03:37:22;;;;;;;9.02;2.63;;;;;;;;;;5096540;28;20314;-78
2024/02/05 03:39:50;;;;;;;5.57;3.20;;;;;;;;;;5099978;28;20212;-78
2024/02/05 03:42:17;;;;;;;4.75;2.78;;;;;;;;;;5100910;28;20206;-78
2024/02/05 03:44:44;;;;;;;4.85;2.78;;;;;;;;;;5101331;28;20200;-78
2024/02/05 03:47:12;;;;;;;4.72;2.53;;;;;;;;;;5100956;28;20300;-78
2024/02/05 03:49:41;;;;;;;8.65;5.15;;;;;;;;;;5101073;28;20210;-78
2024/02/05 03:52:08;;;;;;;6.88;4.18;;;;;;;;;;5101507;28;20227;-78
2024/02/05 03:54:37;;;;;;;10.52;4.00;;;;;;;;;;5101040;28;20321;-78
2024/02/05 03:57:05;;;;;;;4.88;3.03;;;;;;;;;;5101084;28;20232;-79
2024/02/05 03:59:33;;;;;;;4.57;2.55;;;;;;;;;;5101079;28;20203;-79
2024/02/05 04:02:01;;;;;;;7.95;3.63;;;;;;;;;;5100377;28;20577;-78
2024/02/05 04:04:28;;;;;;;4.00;3.08;;;;;;;;;;5100745;28;20208;-78
2024/02/05 04:06:57;;;;;;;6.57;3.15;;;;;;;;;;5096051;28;20221;-77
2024/02/05 04:09:25;;;;;;;9.02;5.53;;;;;;;;;;5096706;28;20207;-77
2024/02/05 04:11:54;;;;;;;5.53;3.75;;;;;;;;;;5095251;28;20207;-78
2024/02/05 04:14:21;;;;;;;10.05;4.90;;;;;;;;;;5095803;28;20224;-78
2024/02/05 04:16:50;;;;;;;4.15;3.47;;;;;;;;;;5095896;28;20220;-77
2024/02/05 04:19:18;;;;;;;7.07;4.25;;;;;;;;;;5095831;28;20207;-77
2024/02/05 04:21:45;;;;;;;6.95;3.97;;;;;;;;;;5095487;28;20196;-77
2024/02/05 04:24:14;;;;;;;11.73;3.50;;;;;;;;;;5095279;28;20293;-77
2024/02/05 04:26:41;;;;;;;9.15;4.00;;;;;;;;;;5096674;28;20307;-78
2024/02/05 04:29:14;;;;;;;8.40;4.15;;;;;;;;;;5096449;28;20243;-77
2024/02/05 04:31:42;;;;;;;27.60;5.85;;;;;;;;;;5096830;28;20631;-77
2024/02/05 04:34:09;;;;;;;8.73;3.80;;;;;;;;;;5094981;28;20687;-77
2024/02/05 04:36:37;;;;;;;6.30;4.47;;;;;;;;;;5095598;28;20695;-78
2024/02/05 04:39:09;;;;;;;8.93;4.70;;;;;;;;;;5095087;28;20255;-77
2024/02/05 04:41:38;;;;;;;6.63;3.83;;;;;;;;;;5095270;28;20188;-77
2024/02/05 04:44:05;;;;;;;14.00;6.00;;;;;;;;;;5095227;28;20203;-78
2024/02/05 04:46:33;;;;;;;10.38;4.75;;;;;;;;;;5095901;28;20240;-78
2024/02/05 04:49:00;;;;;;;10.82;4.00;;;;;;;;;;5094780;28;20251;-77
2024/02/05 04:51:27;;;;;;;8.57;4.97;;;;;;;;;;5096602;28;20204;-77
2024/02/05 04:53:56;;;;;;;8.85;5.00;;;;;;;;;;5095786;28;20220;-77
2024/02/05 04:56:23;;;;;;;6.68;3.47;;;;;;;;;;5094417;28;20206;-78
2024/02/05 04:58:53;;;;;;;7.15;2.83;;;;;;;;;;5094496;28;20210;-78
2024/02/05 05:01:20;;;;;;;4.07;2.60;;;;;;;;;;5095302;28;20287;-76
2024/02/05 05:03:47;;;;;;;2.53;2.33;;;;;;;;;;5095145;28;20193;-79
2024/02/05 05:06:15;;;;;;;5.25;3.00;;;;;;;;;;5095433;28;20200;-77
2024/02/05 05:08:42;;;;;;;6.38;3.53;;;;;;;;;;5095310;28;20198;-77
2024/02/05 05:11:10;;;;;;;8.38;4.20;;;;;;;;;;5095221;28;20200;-77
2024/02/05 05:13:37;;;;;;;9.07;3.75;;;;;;;;;;5096501;28;20295;-77
2024/02/05 05:16:07;;;;;;;8.45;4.30;;;;;;;;;;5095814;28;20681;-77
2024/02/05 05:18:35;;;;;;;5.47;3.15;;;;;;;;;;5095503;28;20224;-78
2024/02/05 05:21:02;;;;;;;9.27;4.03;;;;;;;;;;5095262;28;20291;-78
2024/02/05 05:23:29;;;;;;;17.90;6.13;;;;;;;;;;5094300;28;20205;-77
2024/02/05 05:25:57;;;;;;;7.53;3.80;;;;;;;;;;5094553;28;20202;-77
2024/02/05 05:28:24;;;;;;;7.72;3.92;;;;;;;;;;5094345;28;20311;-77
2024/02/05 05:30:52;;;;;;;6.03;3.17;;;;;;;;;;5093919;28;20205;-77
2024/02/05 05:33:21;;;;;;;6.65;3.10;;;;;;;;;;5094553;28;20208;-78
2024/02/05 05:35:48;;;;;;;10.48;4.15;;;;;;;;;;5095297;28;20224;-77
2024/02/05 05:38:16;;;;;;;6.20;2.83;;;;;;;;;;5094228;28;20220;-77
2024/02/05 05:40:43;;;;;;;5.35;3.08;;;;;;;;;;5094156;28;20196;-77
2024/02/05 05:43:10;;;;;;;8.60;3.58;;;;;;;;;;5094813;28;20200;-77
2024/02/05 05:45:38;;;;;;;6.35;3.20;;;;;;;;;;5094569;28;20231;-78
2024/02/05 05:48:07;;;;;;;12.65;4.53;;;;;;;;;;5094336;28;20232;-77
2024/02/05 05:50:35;;;;;;;6.03;3.38;;;;;;;;;;5095006;28;20227;-77
2024/02/05 05:53:03;;;;;;;7.93;3.35;;;;;;;;;;5094685;28;20584;-78
2024/02/05 05:55:31;;;;;;;10.75;3.30;;;;;;;;;;5095964;28;20311;-77
2024/02/05 05:57:58;;;;;;;7.75;3.92;;;;;;;;;;5095821;28;20217;-79
2024/02/05 06:00:26;;;;;;;6.95;3.65;;;;;;;;;;5094601;28;20227;-77
2024/02/05 06:02:53;;;;;;;8.48;3.13;;;;;;;;;;5094902;28;20204;-78
2024/02/05 06:05:21;;;;;;;7.72;3.53;;;;;;;;;;5095664;28;20207;-77
2024/02/05 06:07:49;;;;;;;9.27;4.40;;;;;;;;;;5096393;28;20307;-77
2024/02/05 06:10:17;;;;;;;5.40;2.83;;;;;;;;;;5095539;28;20685;-77
2024/02/05 06:12:45;;;;;;;10.48;4.43;;;;;;;;;;5095402;28;20204;-78
2024/02/05 06:15:14;;;;;;;6.80;3.40;;;;;;;;;;5095645;28;20220;-78
2024/02/05 06:17:42;;;;;;;7.15;2.55;;;;;;;;;;5095832;28;20259;-78
2024/02/05 06:20:10;;;;;;;3.72;2.10;;;;;;;;;;5096344;28;20200;-77
2024/02/05 06:22:37;;;;;;;9.85;3.17;;;;;;;;;;5096677;28;20214;-77
2024/02/05 06:25:07;;;;;;;7.28;2.42;;;;;;;;;;5095080;28;20204;-78
2024/02/05 06:27:35;;;;;;;6.85;3.25;;;;;;;;;;5096503;28;20311;-78
2024/02/05 06:30:03;;;;;;;7.97;3.47;;;;;;;;;;5095968;28;20629;-78
2024/02/05 06:32:30;;;;;;;9.75;3.88;;;;;;;;;;5096063;28;20228;-77
2024/02/05 06:34:58;;;;;;;13.10;3.42;;;;;;;;;;5096334;28;20350;-78
2024/02/05 06:37:25;;;;;;;9.60;3.85;;;;;;;;;;5096091;28;20307;-78
2024/02/05 06:39:53;;;;;;;3.40;2.28;;;;;;;;;;5096704;28;20201;-78
2024/02/05 06:42:22;;;;;;;7.28;3.55;;;;;;;;;;5096658;28;20204;-78
2024/02/05 06:44:51;;;;;;;4.65;2.38;;;;;;;;;;5097348;28;20558;-80
2024/02/05 06:47:18;;;;;;;8.10;2.78;;;;;;;;;;5096400;28;20239;-77
2024/02/05 06:49:46;;;;;;;4.80;2.30;;;;;;;;;;5096313;28;20204;-78
2024/02/05 06:52:13;;;;;;;4.80;2.30;;;;;;;;;;5095629;28;20226;-77
2024/02/05 06:54:41;;;;;;;4.57;2.15;;;;;;;;;;5095855;28;20307;-78
2024/02/05 06:57:08;;;;;;;4.68;2.28;;;;;;;;;;5096648;28;20303;-78
2024/02/05 06:59:37;;;;;;;4.05;1.88;;;;;;;;;;5095810;28;20589;-78
2024/02/05 07:02:08;;;;;;;5.72;2.25;;;;;;;;;;5095208;28;20676;-78
2024/02/05 07:04:36;;;;;;;4.18;2.72;;;;;;;;;;5096595;28;20559;-78
2024/02/05 07:07:04;;;;;;;4.78;2.70;;;;;;;;;;5097118;28;20264;-77
2024/02/05 07:09:31;;;;;;;4.18;2.40;;;;;;;;;;5096655;28;20295;-76
2024/02/05 07:11:59;;;;;;;4.15;2.20;;;;;;;;;;5095352;28;20277;-78
2024/02/05 07:14:27;;;;;;;3.80;2.10;;;;;;;;;;5098853;28;20291;-78
2024/02/05 07:16:55;;;;;;;3.20;1.90;;;;;;;;;;5099174;28;20220;-78
2024/02/05 07:19:23;;;;;;;9.55;2.60;;;;;;;;;;5099053;28;20215;-77
2024/02/05 07:21:50;;;;;;;7.90;3.45;;;;;;;;;;5099450;28;20204;-78
2024/02/05 07:24:18;;;;;;;7.53;2.25;;;;;;;;;;5100272;28;20207;-78
2024/02/05 07:26:45;;;;;;;5.65;3.08;;;;;;;;;;5099809;28;20639;-77
2024/02/05 07:29:13;;;;;;;5.53;2.25;;;;;;;;;;5098562;28;20204;-78
2024/02/05 07:31:40;;;;;;;5.60;2.05;;;;;;;;;;5099337;28;20218;-77
2024/02/05 07:34:09;;;;;;;5.07;2.63;;;;;;;;;;5099656;28;20290;-78
2024/02/05 07:36:37;;;;;;;8.55;2.83;;;;;;;;;;5098814;28;20223;-79
2024/02/05 07:39:07;;;;;;;6.13;2.15;;;;;;;;;;5099459;28;20682;-78
2024/02/05 07:41:34;;;;;;;6.88;3.08;;;;;;;;;;5100191;28;20184;-78
2024/02/05 07:44:02;;;;;;;3.65;2.00;;;;;;;;;;5100016;28;20742;-78
2024/02/05 07:46:29;;;;;;;6.40;2.47;;;;;;;;;;5098531;28;20198;-78
2024/02/05 07:48:57;;;;;;;10.27;4.00;;;;;;;;;;5098863;28;20654;-79
2024/02/05 07:51:26;;;;;;;4.70;2.00;;;;;;;;;;5099310;28;20208;-79
2024/02/05 07:53:54;;;;;;;5.93;2.00;;;;;;;;;;5099345;28;20245;-77
2024/02/05 07:56:21;;;;;;;7.72;3.30;;;;;;;;;;5093620;28;20221;-76
2024/02/05 07:58:49;;;;;;;5.90;3.35;;;;;;;;;;5096931;28;20210;-78
2024/02/05 08:01:17;;;;;;;7.55;4.70;;;;;;;;;;5098975;28;20204;-76
2024/02/05 08:03:44;;;;;;;6.85;2.42;;;;;;;;;;5098176;28;20215;-78
2024/02/05 08:06:21;;;;;;;6.20;2.78;;;;;;;;;;5099424;28;20204;-78
2024/02/05 08:08:50;;;;;;;7.15;3.28;;;;;;;;;;5099899;28;20227;-78
2024/02/05 08:11:17;;;;;;;4.53;2.47;;;;;;;;;;5099236;28;20268;-77
2024/02/05 08:13:45;;;;;;;6.50;2.63;;;;;;;;;;5090304;28;20204;-76
2024/02/05 08:16:12;;;;;;;3.97;2.05;;;;;;;;;;5098295;28;20228;-76
2024/02/05 08:18:40;;;;;;;4.85;2.72;;;;;;;;;;5090119;28;20292;-77
2024/02/05 08:21:07;;;;;;;3.47;2.03;;;;;;;;;;5098325;28;20211;-77
2024/02/05 08:23:36;;;;;;;5.55;2.72;;;;;;;;;;5097701;28;20220;-77
2024/02/05 08:26:05;;;;;;;5.55;2.42;;;;;;;;;;5090020;28;20239;-79
2024/02/05 08:28:33;;;;;;;3.40;1.85;;;;;;;;;;5099038;28;20226;-78
2024/02/05 08:31:00;;;;;;;6.25;2.47;;;;;;;;;;5099294;28;20559;-78
2024/02/05 08:33:28;;;;;;;3.58;1.88;;;;;;;;;;5098742;28;20283;-78
2024/02/05 08:35:56;;;;;;;4.72;2.38;;;;;;;;;;5096511;28;20291;-77
2024/02/05 08:38:23;;;;;;;3.95;1.85;;;;;;;;;;5096005;28;20315;-77
2024/02/05 08:40:51;;;;;;;8.55;2.80;;;;;;;;;;5095647;28;20204;-78
2024/02/05 08:43:20;;;;;;;3.95;2.13;;;;;;;;;;5095906;28;20211;-77
2024/02/05 08:45:48;;;;;;;5.93;2.20;;;;;;;;;;5096399;28;20201;-79
2024/02/05 08:48:16;;;;;;;5.80;2.40;;;;;;;;;;5096130;28;20235;-78
2024/02/05 08:50:44;;;;;;;7.47;3.00;;;;;;;;;;5095897;28;20211;-77
2024/02/05 08:53:11;;;;;;;7.93;3.40;;;;;;;;;;5095812;28;20204;-78
2024/02/05 08:55:39;;;;;;;6.15;3.08;;;;;;;;;;5095981;28;20591;-75
2024/02/05 08:58:06;;;;;;;6.57;3.30;;;;;;;;;;5096813;28;20761;-77
2024/02/05 09:00:35;;;;;;;4.05;2.33;;;;;;;;;;5096416;28;20214;-78
2024/02/05 09:03:03;;;;;;;7.05;2.20;;;;;;;;;;5092390;28;20291;-78
2024/02/05 09:05:30;;;;;;;9.85;3.45;;;;;;;;;;5091982;28;20227;-78
2024/02/05 09:07:58;;;;;;;14.10;3.50;;;;;;;;;;5095914;28;20307;-79
2024/02/05 09:10:25;;;;;;;7.82;2.67;;;;;;;;;;5096581;28;20208;-78
2024/02/05 09:12:53;;;;;;;6.15;2.90;;;;;;;;;;5096808;28;20289;-76
2024/02/05 09:15:21;;;;;;;9.90;4.63;;;;;;;;;;5096814;28;20210;-79
2024/02/05 09:17:50;;;;;;;7.53;2.75;;;;;;;;;;5097208;28;20250;-78
2024/02/05 09:20:18;;;;;;;6.85;4.10;;;;;;;;;;5097956;28;20208;-80
2024/02/05 09:22:47;;;;;;;5.43;2.60;;;;;;;;;;5096450;28;20208;-79
2024/02/05 09:25:15;;;;;;;11.73;3.53;;;;;;;;;;5097667;28;20238;-78
2024/02/05 09:27:42;;;;;;;14.85;3.97;;;;;;;;;;5096735;28;20311;-80
2024/02/05 09:30:10;;;;;;;10.48;3.25;;;;;;;;;;5096689;28;20208;-80
2024/02/05 09:32:37;;;;;;;10.73;5.85;;;;;;;;;;5096834;28;20645;-80
2024/02/05 09:35:07;;;;;;;5.43;2.78;;;;;;;;;;5095830;28;20211;-79
2024/02/05 09:37:35;;;;;;;9.73;2.78;;;;;;;;;;5096685;28;20315;-79
2024/02/05 09:40:02;;;;;;;9.52;3.55;;;;;;;;;;5096557;28;20213;-80
2024/02/05 09:42:31;;;;;;;5.32;2.55;;;;;;;;;;5095718;28;20651;-79
2024/02/05 09:44:59;;;;;;;4.95;2.63;;;;;;;;;;5096542;28;20240;-80
2024/02/05 09:47:28;;;;;;;8.55;3.45;;;;;;;;;;5096477;28;20224;-80
2024/02/05 09:49:57;;;;;;;16.70;4.60;;;;;;;;;;5087702;28;20204;-79
2024/02/05 09:52:26;;;;;;;8.43;4.25;;;;;;;;;;5088074;28;20592;-79
2024/02/05 09:54:55;;;;;;;10.95;3.92;;;;;;;;;;5093905;28;20294;-79
2024/02/05 09:57:29;;;;;;;10.48;3.15;;;;;;;;;;5090142;28;20285;-80
2024/02/05 09:59:56;;;;;;;5.57;2.58;;;;;;;;;;5096634;28;20204;-78
2024/02/05 10:02:25;;;;;;;13.15;5.93;;;;;;;;;;5096289;28;20214;-79
2024/02/05 10:04:53;;;;;;;3.33;2.28;;;;;;;;;;5096430;28;20294;-79
2024/02/05 10:07:21;;;;;;;4.43;2.97;;;;;;;;;;5096423;28;20216;-80
2024/02/05 10:09:50;;;;;;;4.95;3.00;;;;;;;;;;5087891;28;20641;-79
2024/02/05 10:12:18;;;;;;;5.43;2.53;;;;;;;;;;5087245;28;20283;-79
2024/02/05 10:14:46;;;;;;;6.78;3.53;;;;;;;;;;5086772;28;20311;-79
2024/02/05 10:17:15;;;;;;;5.95;3.17;;;;;;;;;;5088799;28;20228;-80
2024/02/05 10:19:42;;;;;;;5.78;2.97;;;;;;;;;;5096406;28;20238;-80
2024/02/05 10:22:10;;;;;;;5.32;3.38;;;;;;;;;;5095718;28;20647;-78
2024/02/05 10:24:41;;;;;;;4.72;3.72;;;;;;;;;;5096167;28;20208;-80
2024/02/05 10:27:14;;;;;;;6.82;3.00;;;;;;;;;;5087960;28;20227;-80
2024/02/05 10:29:42;;;;;;;5.93;4.70;;;;;;;;;;5096474;28;20272;-80
2024/02/05 10:32:09;;;;;;;6.57;3.33;;;;;;;;;;5095579;28;20208;-74
2024/02/05 10:34:37;;;;;;;7.60;4.38;;;;;;;;;;5095484;28;20291;-80
2024/02/05 10:37:10;;;;;;;10.98;4.22;;;;;;;;;;5085904;28;20233;-80
2024/02/05 10:39:37;;;;;;;8.30;3.63;;;;;;;;;;5095782;28;20576;-79
2024/02/05 10:42:05;;;;;;;8.45;3.35;;;;;;;;;;5095747;28;20305;-80
2024/02/05 10:44:35;;;;;;;5.90;2.92;;;;;;;;;;5094324;28;20240;-80
2024/02/05 10:47:03;;;;;;;8.57;3.90;;;;;;;;;;5095199;28;20277;-79
2024/02/05 10:49:31;;;;;;;5.05;2.65;;;;;;;;;;5095179;28;20287;-78
2024/02/05 10:51:59;;;;;;;4.30;2.65;;;;;;;;;;5095674;28;20204;-79
2024/02/05 10:54:27;;;;;;;11.98;3.67;;;;;;;;;;5095711;28;20204;-80
2024/02/05 10:56:55;;;;;;;9.32;2.92;;;;;;;;;;5095577;28;20761;-79
2024/02/05 10:59:23;;;;;;;6.07;3.05;;;;;;;;;;5095241;28;20763;-79
2024/02/05 11:01:58;;;;;;;7.50;3.40;;;;;;;;;;5095269;28;20200;-79
2024/02/05 11:04:27;;;;;;;2.95;2.05;;;;;;;;;;5095576;28;20232;-79
2024/02/05 11:06:57;;;;;;;4.22;2.20;;;;;;;;;;5095544;28;20228;-78
2024/02/05 11:09:25;;;;;;;11.48;3.78;;;;;;;;;;5095347;28;20206;-77
2024/02/05 11:11:56;;;;;;;6.07;3.70;;;;;;;;;;5095210;28;20254;-79
2024/02/05 11:14:25;;;;;;;6.70;3.17;;;;;;;;;;5094871;28;20299;-79
2024/02/05 11:16:54;;;;;;;5.75;2.67;;;;;;;;;;5095495;28;20220;-79
2024/02/05 11:19:21;;;;;;;5.65;2.53;;;;;;;;;;5095366;28;20315;-79
2024/02/05 11:21:52;;;;;;;6.63;3.42;;;;;;;;;;5095401;28;20204;-78
2024/02/05 11:24:22;;;;;;;6.95;3.67;;;;;;;;;;5095421;28;20661;-79
2024/02/05 11:26:50;;;;;;;5.38;3.40;;;;;;;;;;5094893;28;20776;-78
2024/02/05 11:29:24;;;;;;;8.70;4.13;;;;;;;;;;5095328;28;20321;-79
2024/02/05 11:31:54;;;;;;;9.32;3.17;;;;;;;;;;5094741;28;20196;-79
2024/02/05 11:34:23;;;;;;;5.40;4.15;;;;;;;;;;5094779;28;20215;-79
2024/02/05 11:36:50;;;;;;;6.63;2.78;;;;;;;;;;5093747;28;20231;-79
2024/02/05 11:39:18;;;;;;;7.53;3.17;;;;;;;;;;5093607;28;20713;-79
2024/02/05 11:41:45;;;;;;;6.75;2.78;;;;;;;;;;5094693;28;20204;-77
2024/02/05 11:44:16;;;;;;;7.90;3.22;;;;;;;;;;5093839;28;20218;-78
2024/02/05 11:46:43;;;;;;;4.65;2.25;;;;;;;;;;5094764;28;20326;-79
2024/02/05 11:49:12;;;;;;;5.68;2.80;;;;;;;;;;5094546;28;20283;-79
2024/02/05 11:51:40;;;;;;;5.88;2.90;;;;;;;;;;5094472;28;20250;-78
2024/02/05 11:54:08;;;;;;;4.50;2.78;;;;;;;;;;5094635;28;20212;-78
2024/02/05 11:56:36;;;;;;;8.68;3.13;;;;;;;;;;5094827;28;20232;-79
2024/02/05 11:59:08;;;;;;;6.53;3.65;;;;;;;;;;5095436;28;20224;-78
2024/02/05 12:01:37;;;;;;;7.90;4.45;;;;;;;;;;5098063;28;20226;-79
2024/02/05 12:04:05;;;;;;;7.07;2.38;;;;;;;;;;5098387;28;20227;-78
2024/02/05 12:06:34;;;;;;;5.05;2.35;;;;;;;;;;5099183;28;20208;-77
2024/02/05 12:09:06;;;;;;;4.65;2.70;;;;;;;;;;5098216;28;20210;-79
2024/02/05 12:11:34;;;;;;;3.65;2.38;;;;;;;;;;5098956;28;20196;-78
2024/02/05 12:14:02;;;;;;;7.78;3.25;;;;;;;;;;5098507;28;20670;-79
2024/02/05 12:16:31;;;;;;;8.27;2.72;;;;;;;;;;5097943;28;20575;-77
2024/02/05 12:18:58;;;;;;;5.53;3.05;;;;;;;;;;5098324;28;20255;-79
2024/02/05 12:21:27;;;;;;;9.95;2.50;;;;;;;;;;5097967;28;20211;-78
2024/02/05 12:23:56;;;;;;;8.20;2.67;;;;;;;;;;5097997;28;20287;-79
2024/02/05 12:26:23;;;;;;;12.82;3.35;;;;;;;;;;5098133;28;20208;-78
2024/02/05 12:28:52;;;;;;;9.52;2.80;;;;;;;;;;5098016;28;20638;-79
2024/02/05 12:31:23;;;;;;;2.38;1.88;;;;;;;;;;5098187;28;20204;-78
2024/02/05 12:33:56;;;;;;;4.22;1.95;;;;;;;;;;5089497;28;20272;-79
2024/02/05 12:36:24;;;;;;;5.43;1.70;;;;;;;;;;5097928;28;20603;-78
2024/02/05 12:38:52;;;;;;;3.33;2.42;;;;;;;;;;5097813;28;20315;-79
2024/02/05 12:41:21;;;;;;;6.43;2.42;;;;;;;;;;5097841;28;20564;-79
2024/02/05 12:43:49;;;;;;;6.25;3.28;;;;;;;;;;5097153;28;20248;-78
2024/02/05 12:46:17;;;;;;;3.10;2.15;;;;;;;;;;5097343;28;20258;-78
2024/02/05 12:48:44;;;;;;;9.40;2.30;;;;;;;;;;5097796;28;20228;-78
2024/02/05 12:51:12;;;;;;;7.28;2.63;;;;;;;;;;5097439;28;20784;-78
2024/02/05 12:53:41;;;;;;;3.95;1.83;;;;;;;;;;5097487;28;20291;-77
2024/02/05 12:56:09;;;;;;;3.63;2.90;;;;;;;;;;5097408;28;20269;-79
2024/02/05 12:58:39;;;;;;;4.72;2.58;;;;;;;;;;5097305;28;20319;-78
2024/02/05 13:01:06;;;;;;;5.20;2.17;;;;;;;;;;5089461;28;20271;-78
2024/02/05 13:03:34;;;;;;;1.95;1.63;;;;;;;;;;5098004;28;20215;-78
2024/02/05 13:06:01;;;;;;;6.60;2.58;;;;;;;;;;5097244;28;20239;-79
2024/02/05 13:08:29;;;;;;;3.03;1.80;;;;;;;;;;5097470;28;20641;-79
2024/02/05 13:10:56;;;;;;;4.20;2.13;;;;;;;;;;5096253;28;20244;-79
2024/02/05 13:13:24;;;;;;;3.53;1.83;;;;;;;;;;5096855;28;20239;-78
2024/02/05 13:15:53;;;;;;;7.55;3.08;;;;;;;;;;5097199;28;20726;-78
2024/02/05 13:18:20;;;;;;;4.05;3.03;;;;;;;;;;5098258;28;20230;-79
2024/02/05 13:20:48;;;;;;;4.82;1.70;;;;;;;;;;5098016;28;20204;-78
2024/02/05 13:23:15;;;;;;;2.75;1.95;;;;;;;;;;5096938;28;20200;-79
2024/02/05 13:25:45;;;;;;;4.88;2.40;;;;;;;;;;5097242;28;20210;-78
2024/02/05 13:28:13;;;;;;;4.70;2.28;;;;;;;;;;5097542;28;20228;-78
2024/02/05 13:30:41;;;;;;;6.53;2.80;;;;;;;;;;5096975;28;20745;-78
2024/02/05 13:33:10;;;;;;;4.50;2.20;;;;;;;;;;5097160;28;20242;-78
2024/02/05 13:35:37;;;;;;;2.88;1.85;;;;;;;;;;5088776;28;20208;-79
2024/02/05 13:38:05;;;;;;;3.95;1.90;;;;;;;;;;5096397;28;20231;-78
2024/02/05 13:40:33;;;;;;;5.78;2.35;;;;;;;;;;5096872;28;20234;-78
2024/02/05 13:43:01;;;;;;;1.63;1.40;;;;;;;;;;5096683;28;20230;-78
2024/02/05 13:45:29;;;;;;;5.35;2.00;;;;;;;;;;5096691;28;20236;-78
2024/02/05 13:47:56;;;;;;;7.05;2.92;;;;;;;;;;5097479;28;20318;-78
2024/02/05 13:50:25;;;;;;;4.45;1.88;;;;;;;;;;5097199;28;20211;-77
2024/02/05 13:52:54;;;;;;;2.40;1.45;;;;;;;;;;5096395;28;20204;-77
2024/02/05 13:55:22;;;;;;;2.15;1.65;;;;;;;;;;5096227;28;20208;-77
2024/02/05 13:57:49;;;;;;;2.95;1.92;;;;;;;;;;5097385;28;20216;-77
2024/02/05 14:00:17;;;;;;;5.43;2.03;;;;;;;;;;5094674;28;20662;-77
2024/02/05 14:02:45;;;;;;;6.50;2.67;;;;;;;;;;5097043;28;20659;-78
2024/02/05 14:05:13;;;;;;;4.72;1.98;;;;;;;;;;5097158;28;20219;-77
2024/02/05 14:07:41;;;;;;;4.50;1.98;;;;;;;;;;5095492;28;20288;-77
2024/02/05 14:10:09;;;;;;;4.32;2.63;;;;;;;;;;5095057;28;20291;-77
2024/02/05 14:12:37;;;;;;;5.07;2.50;;;;;;;;;;5094760;28;20309;-77
2024/02/05 14:15:06;;;;;;;2.63;1.40;;;;;;;;;;5085769;28;20211;-77
2024/02/05 14:17:33;;;;;;;5.25;2.50;;;;;;;;;;5095143;28;20690;-77
2024/02/05 14:20:01;;;;;;;3.08;1.48;;;;;;;;;;5096282;28;20315;-77
2024/02/05 14:22:28;;;;;;;4.72;1.58;;;;;;;;;;5094723;28;20745;-77
2024/02/05 14:24:57;;;;;;;4.00;2.25;;;;;;;;;;5093931;28;20293;-77
2024/02/05 14:27:25;;;;;;;2.60;1.98;;;;;;;;;;5093980;28;20311;-77
2024/02/05 14:29:52;;;;;;;7.35;3.65;;;;;;;;;;5094472;28;20244;-77
2024/02/05 14:32:20;;;;;;;2.95;1.33;;;;;;;;;;5093100;28;20200;-78
2024/02/05 14:34:47;;;;;;;2.95;1.90;;;;;;;;;;5093951;28;20287;-77
2024/02/05 14:37:15;;;;;;;2.90;2.10;;;;;;;;;;5092311;28;20224;-77
2024/02/05 14:39:42;;;;;;;4.40;1.70;;;;;;;;;;5093330;28;20291;-77
2024/02/05 14:42:11;;;;;;;2.50;1.77;;;;;;;;;;5092297;28;20200;-77
2024/02/05 14:44:38;;;;;;;4.10;1.70;;;;;;;;;;5092969;28;20230;-77
2024/02/05 14:47:06;;;;;;;5.97;1.90;;;;;;;;;;5093154;28;20640;-77
2024/02/05 14:49:34;;;;;;;4.80;2.05;;;;;;;;;;5094317;28;20204;-77